createdAt,value
2019-03-12T00:00:27.755Z,6.53
2019-03-12T00:02:56.491Z,6.47
2019-03-12T00:05:25.407Z,7.37
2019-03-12T00:07:54.298Z,5.53
2019-03-12T00:10:23.115Z,6.23
2019-03-12T00:12:51.947Z,6.70
2019-03-12T00:15:20.771Z,6.23
2019-03-12T00:17:49.562Z,6.47
2019-03-12T00:20:18.364Z,6.07
2019-03-12T00:22:49.003Z,6.80
2019-03-12T00:25:17.777Z,8.00
2019-03-12T00:27:46.635Z,6.77
2019-03-12T00:30:15.548Z,7.40
2019-03-12T00:32:44.393Z,6.17
2019-03-12T00:35:13.145Z,7.60
2019-03-12T00:37:42.075Z,6.03
2019-03-12T00:40:10.924Z,7.70
2019-03-12T00:42:39.755Z,8.67
2019-03-12T00:45:12.259Z,6.87
2019-03-12T00:47:41.035Z,7.67
2019-03-12T00:50:11.684Z,7.90
2019-03-12T00:52:40.571Z,7.37
2019-03-12T00:55:09.995Z,8.57
2019-03-12T00:57:38.827Z,8.07
2019-03-12T01:00:10.668Z,7.77
2019-03-12T01:02:39.412Z,8.37
2019-03-12T01:05:08.221Z,8.13
2019-03-12T01:07:37.036Z,8.47
2019-03-12T01:10:08.588Z,9.60
2019-03-12T01:12:37.411Z,7.77
2019-03-12T01:15:09.053Z,7.67
2019-03-12T01:17:37.883Z,8.80
2019-03-12T01:20:12.603Z,8.23
2019-03-12T01:22:41.419Z,8.93
2019-03-12T01:25:11.956Z,8.53
2019-03-12T01:27:41.192Z,7.97
2019-03-12T01:30:19.052Z,7.27
2019-03-12T01:32:47.828Z,8.80
2019-03-12T01:35:16.644Z,8.83
2019-03-12T01:37:45.515Z,7.77
2019-03-12T01:40:14.811Z,7.70
2019-03-12T01:42:43.619Z,7.43
2019-03-12T01:45:14.349Z,7.23
2019-03-12T01:47:43.082Z,9.07
2019-03-12T01:50:13.723Z,8.23
2019-03-12T01:52:42.604Z,7.90
2019-03-12T01:55:13.612Z,8.27
2019-03-12T01:57:42.396Z,6.93
2019-03-12T02:00:14.213Z,8.10
2019-03-12T02:02:42.971Z,8.97
2019-03-12T02:05:11.715Z,7.93
2019-03-12T02:07:40.538Z,8.40
2019-03-12T02:10:11.580Z,7.27
2019-03-12T02:12:40.331Z,8.90
2019-03-12T02:15:16.267Z,6.53
2019-03-12T02:17:45.107Z,8.47
2019-03-12T02:20:16.036Z,7.87
2019-03-12T02:22:44.940Z,7.37
2019-03-12T02:25:21.083Z,7.97
2019-03-12T02:27:49.978Z,6.57
2019-03-12T02:30:20.808Z,7.07
2019-03-12T02:32:49.533Z,5.47
2019-03-12T02:35:18.350Z,5.93
2019-03-12T02:37:47.131Z,5.90
2019-03-12T02:40:17.355Z,6.03
2019-03-12T02:42:46.156Z,5.90
2019-03-12T02:45:16.181Z,6.63
2019-03-12T02:47:44.967Z,5.50
2019-03-12T02:50:14.864Z,6.37
2019-03-12T02:52:43.806Z,6.50
2019-03-12T02:55:13.611Z,5.90
2019-03-12T02:57:42.500Z,6.53
2019-03-12T03:00:23.257Z,5.70
2019-03-12T03:02:52.220Z,6.57
2019-03-12T03:05:21.050Z,6.10
2019-03-12T03:07:53.914Z,6.87
2019-03-12T03:10:22.867Z,6.23
2019-03-12T03:12:51.833Z,6.63
2019-03-12T03:15:34.226Z,7.77
2019-03-12T03:18:03.011Z,5.77
2019-03-12T03:20:31.788Z,5.67
2019-03-12T03:23:00.676Z,6.00
2019-03-12T03:25:29.507Z,5.87
2019-03-12T03:27:58.275Z,5.87
2019-03-12T03:30:27.566Z,6.83
2019-03-12T03:32:56.732Z,6.53
2019-03-12T03:35:25.455Z,6.77
2019-03-12T03:37:54.295Z,5.33
2019-03-12T03:40:23.316Z,6.60
2019-03-12T03:42:52.151Z,5.20
2019-03-12T03:45:21.075Z,6.67
2019-03-12T03:47:49.845Z,6.43
2019-03-12T03:50:18.798Z,6.90
2019-03-12T03:52:47.695Z,6.00
2019-03-12T03:55:18.296Z,5.87
2019-03-12T03:57:47.051Z,5.70
2019-03-12T04:00:20.718Z,7.33
2019-03-12T04:02:49.528Z,6.50
2019-03-12T04:05:18.636Z,7.47
2019-03-12T04:07:47.466Z,7.87
2019-03-12T04:10:16.644Z,6.57
2019-03-12T04:12:45.476Z,7.90
2019-03-12T04:15:17.275Z,8.10
2019-03-12T04:17:46.083Z,9.00
2019-03-12T04:20:16.459Z,7.67
2019-03-12T04:22:45.329Z,8.03
2019-03-12T04:25:14.156Z,7.80
2019-03-12T04:27:42.909Z,7.77
2019-03-12T04:30:19.524Z,8.07
2019-03-12T04:32:48.315Z,7.73
2019-03-12T04:35:20.165Z,8.10
2019-03-12T04:37:49.039Z,6.83
2019-03-12T04:40:17.900Z,7.63
2019-03-12T04:42:46.625Z,8.30
2019-03-12T04:45:16.947Z,8.30
2019-03-12T04:47:45.763Z,7.90
2019-03-12T04:50:15.627Z,8.57
2019-03-12T04:52:44.389Z,8.13
2019-03-12T04:55:15.052Z,8.53
2019-03-12T04:57:44.007Z,10.07
2019-03-12T05:00:15.747Z,8.23
2019-03-12T05:02:44.602Z,8.97
2019-03-12T05:05:13.531Z,7.80
2019-03-12T05:07:42.413Z,7.70
2019-03-12T05:10:13.855Z,9.30
2019-03-12T05:12:42.658Z,8.87
2019-03-12T05:15:18.577Z,8.27
2019-03-12T05:17:47.335Z,8.17
2019-03-12T05:20:16.435Z,8.00
2019-03-12T05:22:45.511Z,7.73
2019-03-12T05:25:15.132Z,7.53
2019-03-12T05:27:43.947Z,8.67
2019-03-12T05:30:20.493Z,8.27
2019-03-12T05:32:49.244Z,8.47
2019-03-12T05:35:21.054Z,9.20
2019-03-12T05:37:51.453Z,8.30
2019-03-12T05:40:20.283Z,8.30
2019-03-12T05:42:49.156Z,9.07
2019-03-12T05:45:20.709Z,7.20
2019-03-12T05:47:49.491Z,7.23
2019-03-12T05:50:19.402Z,8.17
2019-03-12T05:52:49.515Z,7.67
2019-03-12T05:55:18.692Z,7.67
2019-03-12T05:57:47.492Z,7.07
2019-03-12T06:00:20.123Z,7.17
2019-03-12T06:02:48.893Z,7.00
2019-03-12T06:05:17.652Z,8.47
2019-03-12T06:07:46.461Z,7.67
2019-03-12T06:10:16.106Z,7.37
2019-03-12T06:12:45.948Z,8.10
2019-03-12T06:15:15.964Z,7.73
2019-03-12T06:17:44.931Z,7.00
2019-03-12T06:20:14.632Z,6.43
2019-03-12T06:22:43.619Z,6.93
2019-03-12T06:25:13.092Z,6.13
2019-03-12T06:27:41.956Z,6.97
2019-03-12T06:30:19.364Z,7.10
2019-03-12T06:32:55.452Z,6.67
2019-03-12T06:35:28.636Z,7.03
2019-03-12T06:38:01.772Z,5.47
2019-03-12T06:40:43.898Z,6.77
2019-03-12T06:43:20.044Z,6.17
2019-03-12T06:45:53.540Z,7.33
2019-03-12T06:48:31.227Z,6.63
2019-03-12T06:51:13.274Z,6.40
2019-03-12T06:53:52.883Z,6.20
2019-03-12T06:56:29.129Z,5.67
2019-03-12T06:59:15.972Z,6.20
2019-03-12T07:02:01.498Z,5.60
2019-03-12T07:04:31.906Z,5.97
2019-03-12T07:07:16.949Z,6.27
2019-03-12T07:09:52.099Z,6.73
2019-03-12T07:12:22.550Z,5.40
2019-03-12T07:14:58.787Z,6.43
2019-03-12T07:17:41.356Z,5.67
2019-03-12T07:20:17.940Z,4.63
2019-03-12T07:22:57.019Z,4.13
2019-03-12T07:25:33.242Z,5.03
2019-03-12T07:28:03.699Z,5.20
2019-03-12T07:30:37.021Z,5.23
2019-03-12T07:33:10.339Z,4.03
2019-03-12T07:35:55.650Z,4.17
2019-03-12T07:38:37.827Z,4.40
2019-03-12T07:41:08.213Z,4.73
2019-03-12T07:43:50.464Z,5.17
2019-03-12T07:46:26.725Z,4.83
2019-03-12T07:49:03.167Z,4.93
2019-03-12T07:51:49.572Z,4.90
2019-03-12T07:54:25.806Z,4.80
2019-03-12T07:57:04.818Z,5.13
2019-03-12T07:59:51.710Z,4.10
2019-03-12T08:02:24.831Z,4.73
2019-03-12T08:04:58.091Z,5.60
2019-03-12T08:07:31.089Z,5.23
2019-03-12T08:10:04.156Z,4.60
2019-03-12T08:12:37.044Z,4.77
2019-03-12T08:15:22.523Z,5.40
2019-03-12T08:17:44.842Z,5.03
2019-03-12T08:20:15.252Z,5.00
2019-03-12T08:22:45.724Z,5.13
2019-03-12T08:25:21.725Z,4.77
2019-03-12T08:28:01.163Z,4.70
2019-03-12T08:30:34.430Z,5.07
2019-03-12T08:33:17.021Z,5.53
2019-03-12T08:35:53.217Z,6.40
2019-03-12T08:38:23.772Z,5.13
2019-03-12T08:40:54.180Z,6.07
2019-03-12T08:43:24.596Z,4.60
2019-03-12T08:46:10.986Z,4.97
2019-03-12T08:48:47.092Z,5.57
2019-03-12T08:51:17.540Z,4.83
2019-03-12T08:53:50.467Z,5.47
2019-03-12T08:56:20.914Z,4.90
2019-03-12T08:59:07.724Z,4.77
2019-03-12T09:01:56.270Z,4.93
2019-03-12T09:04:26.677Z,5.03
2019-03-12T09:07:05.095Z,5.30
2019-03-12T09:09:34.787Z,4.83
2019-03-12T09:12:21.319Z,6.03
2019-03-12T09:15:06.860Z,4.93
2019-03-12T09:17:37.384Z,5.27
2019-03-12T09:20:10.963Z,5.53
2019-03-12T09:22:57.596Z,4.57
2019-03-12T09:25:33.531Z,5.13
2019-03-12T09:28:22.071Z,5.67
2019-03-12T09:31:07.532Z,5.53
2019-03-12T09:33:37.979Z,5.13
2019-03-12T09:36:08.388Z,5.43
2019-03-12T09:38:47.570Z,4.97
2019-03-12T09:41:17.981Z,5.07
2019-03-12T09:44:00.587Z,3.70
2019-03-12T09:46:47.524Z,5.23
2019-03-12T09:49:17.979Z,4.70
2019-03-12T09:51:48.367Z,4.83
2019-03-12T09:54:24.763Z,3.70
2019-03-12T09:56:55.171Z,5.57
2019-03-12T09:59:31.404Z,7.00
2019-03-12T10:02:01.762Z,9.10
2019-03-12T10:04:48.116Z,7.40
2019-03-12T10:07:18.499Z,4.43
2019-03-12T10:10:04.980Z,4.87
2019-03-12T10:12:35.354Z,4.47
2019-03-12T10:15:07.366Z,5.23
2019-03-12T10:17:37.851Z,5.53
2019-03-12T10:20:10.427Z,6.10
2019-03-12T10:22:46.554Z,6.47
2019-03-12T10:25:22.748Z,5.40
2019-03-12T10:27:59.044Z,6.63
2019-03-12T10:30:47.885Z,6.70
2019-03-12T10:33:18.323Z,6.03
2019-03-12T10:35:51.389Z,6.60
2019-03-12T10:38:58.205Z,6.73
2019-03-12T10:41:37.256Z,6.87
2019-03-12T10:47:03.203Z,6.40
2019-03-12T10:49:37.314Z,6.60
2019-03-12T10:52:02.500Z,6.13
2019-03-12T10:54:31.332Z,5.90
2019-03-12T10:57:00.220Z,4.90
2019-03-12T10:59:29.028Z,5.13
2019-03-12T11:01:57.954Z,5.07
2019-03-12T11:04:26.821Z,3.57
2019-03-12T11:06:55.638Z,4.23
2019-03-12T11:09:24.468Z,3.40
2019-03-12T11:11:53.364Z,2.87
2019-03-12T11:14:22.204Z,2.73
2019-03-12T11:16:50.964Z,3.43
2019-03-12T11:19:19.779Z,2.30
2019-03-12T11:21:48.587Z,2.53
2019-03-12T11:24:17.420Z,2.03
2019-03-12T11:26:46.310Z,1.90
2019-03-12T11:29:15.044Z,1.80
2019-03-12T11:31:43.975Z,2.20
2019-03-12T11:34:12.887Z,2.43
2019-03-12T11:36:41.786Z,1.90
2019-03-12T11:39:10.772Z,1.90
2019-03-12T11:41:39.618Z,1.77
2019-03-12T11:44:08.479Z,1.63
2019-03-12T11:46:44.131Z,1.50
2019-03-12T11:49:07.893Z,1.97
2019-03-12T11:51:36.737Z,2.00
2019-03-12T11:54:05.597Z,2.00
2019-03-12T11:56:34.498Z,1.77
2019-03-12T11:59:03.348Z,2.20
2019-03-12T12:01:32.130Z,2.47
2019-03-12T12:04:01.059Z,2.10
2019-03-12T12:06:29.885Z,2.80
2019-03-12T12:08:58.719Z,2.07
2019-03-12T12:11:27.603Z,2.67
2019-03-12T12:13:56.394Z,2.10
2019-03-12T12:16:25.244Z,2.20
2019-03-12T12:18:54.125Z,2.23
2019-03-12T12:21:22.942Z,2.47
2019-03-12T12:23:51.789Z,2.40
2019-03-12T12:26:20.578Z,1.80
2019-03-12T12:28:49.356Z,1.90
2019-03-12T12:31:18.204Z,1.70
2019-03-12T12:33:47.098Z,1.73
2019-03-12T12:36:15.852Z,1.67
2019-03-12T12:38:44.579Z,1.63
2019-03-12T12:41:13.468Z,1.47
2019-03-12T12:43:42.274Z,1.13
2019-03-12T12:46:11.019Z,1.50
2019-03-12T12:48:39.908Z,1.07
2019-03-12T12:51:08.723Z,0.80
2019-03-12T12:53:37.555Z,1.20
2019-03-12T12:56:06.371Z,1.37
2019-03-12T12:58:35.212Z,1.00
2019-03-12T13:01:03.972Z,0.90
2019-03-12T13:03:32.810Z,1.10
2019-03-12T13:06:01.627Z,1.33
2019-03-12T13:08:30.460Z,1.30
2019-03-12T13:10:59.372Z,1.00
2019-03-12T13:13:28.131Z,1.00
2019-03-12T13:15:56.885Z,1.00
2019-03-12T13:18:25.684Z,0.80
2019-03-12T13:20:54.519Z,1.10
2019-03-12T13:23:23.348Z,0.80
2019-03-12T13:25:52.156Z,0.90
2019-03-12T13:28:20.975Z,0.97
2019-03-12T13:30:49.725Z,0.80
2019-03-12T13:33:18.571Z,0.77
2019-03-12T13:35:49.481Z,1.03
2019-03-12T13:38:17.885Z,0.70
2019-03-12T13:40:46.676Z,0.80
2019-03-12T13:43:15.445Z,1.03
2019-03-12T13:45:44.293Z,1.00
2019-03-12T13:48:13.186Z,1.17
2019-03-12T13:50:42.003Z,0.93
2019-03-12T13:53:10.831Z,1.00
2019-03-12T13:55:39.700Z,1.23
2019-03-12T13:58:08.539Z,1.20
2019-03-12T14:00:37.252Z,1.33
2019-03-12T14:03:06.148Z,1.27
2019-03-12T14:05:34.996Z,1.37
2019-03-12T14:08:03.846Z,1.30
2019-03-12T14:10:32.729Z,1.40
2019-03-12T14:13:01.484Z,1.43
2019-03-12T14:15:35.115Z,1.60
2019-03-12T14:18:04.124Z,1.43
2019-03-12T14:20:52.146Z,1.33
2019-03-12T14:23:29.777Z,2.17
2019-03-12T14:25:58.794Z,1.67
2019-03-12T14:28:27.747Z,1.90
2019-03-12T14:30:56.628Z,1.30
2019-03-12T14:33:25.469Z,1.60
2019-03-12T14:35:54.237Z,1.20
2019-03-12T14:38:23.116Z,2.43
2019-03-12T14:40:51.911Z,1.50
2019-03-12T14:43:20.668Z,1.40
2019-03-12T14:45:52.915Z,1.70
2019-03-12T14:48:42.197Z,1.77
2019-03-12T14:51:23.534Z,1.73
2019-03-12T14:53:55.300Z,1.60
2019-03-12T14:56:27.124Z,1.50
2019-03-12T14:58:55.964Z,1.97
2019-03-12T15:01:24.830Z,2.03
2019-03-12T15:03:54.138Z,1.50
2019-03-12T15:06:23.053Z,1.93
2019-03-12T15:08:51.819Z,1.70
2019-03-12T15:11:20.716Z,2.00
2019-03-12T15:13:49.530Z,1.73
2019-03-12T15:16:18.355Z,1.87
2019-03-12T15:18:47.213Z,2.10
2019-03-12T15:21:16.077Z,1.83
2019-03-12T15:23:44.909Z,1.70
2019-03-12T15:26:13.788Z,1.60
2019-03-12T15:28:42.637Z,1.90
2019-03-12T15:31:11.464Z,1.50
2019-03-12T15:33:40.301Z,1.33
2019-03-12T15:36:09.157Z,1.50
2019-03-12T15:38:38.030Z,1.80
2019-03-12T15:41:06.892Z,1.77
2019-03-12T15:43:35.740Z,1.97
2019-03-12T15:46:04.580Z,1.80
2019-03-12T15:48:33.477Z,2.50
2019-03-12T15:51:02.259Z,1.53
2019-03-12T15:53:31.043Z,1.40
2019-03-12T15:55:59.939Z,1.63
2019-03-12T15:58:28.800Z,1.40
2019-03-12T16:00:57.612Z,1.30
2019-03-12T16:03:26.523Z,1.83
2019-03-12T16:05:55.284Z,1.20
2019-03-12T16:08:24.116Z,1.37
2019-03-12T16:10:58.063Z,1.73
2019-03-12T16:13:23.460Z,1.77
2019-03-12T16:15:52.306Z,1.37
2019-03-12T16:18:21.163Z,1.60
2019-03-12T16:20:49.996Z,1.73
2019-03-12T16:23:18.838Z,1.40
2019-03-12T16:25:47.654Z,1.30
2019-03-12T16:28:16.476Z,1.93
2019-03-12T16:30:45.331Z,1.40
2019-03-12T16:33:14.156Z,1.87
2019-03-12T16:35:43.980Z,1.60
2019-03-12T16:38:12.788Z,1.30
2019-03-12T16:40:41.644Z,1.80
2019-03-12T16:43:10.492Z,1.87
2019-03-12T16:45:39.347Z,1.57
2019-03-12T16:48:08.220Z,1.70
2019-03-12T16:50:37.062Z,1.90
2019-03-12T16:53:05.900Z,2.00
2019-03-12T16:55:34.722Z,1.97
2019-03-12T16:58:03.556Z,1.60
2019-03-12T17:00:32.892Z,1.67
2019-03-12T17:03:01.804Z,1.57
2019-03-12T17:05:30.656Z,1.63
2019-03-12T17:07:59.484Z,1.70
2019-03-12T17:10:28.365Z,1.70
2019-03-12T17:12:57.205Z,1.90
2019-03-12T17:15:28.138Z,1.60
2019-03-12T17:17:57.045Z,1.43
2019-03-12T17:20:25.884Z,1.67
2019-03-12T17:22:54.652Z,1.60
2019-03-12T17:25:23.533Z,2.03
2019-03-12T17:27:52.331Z,1.87
2019-03-12T17:30:22.684Z,1.80
2019-03-12T17:32:51.580Z,1.87
2019-03-12T17:35:29.420Z,2.00
2019-03-12T17:37:58.291Z,1.70
2019-03-12T17:40:27.117Z,1.63
2019-03-12T17:42:56.052Z,1.83
2019-03-12T17:45:25.061Z,1.23
2019-03-12T17:47:54.011Z,1.90
2019-03-12T17:50:22.933Z,2.03
2019-03-12T17:52:51.900Z,2.13
2019-03-12T17:55:20.849Z,2.00
2019-03-12T17:57:50.887Z,1.97
2019-03-12T18:00:31.916Z,1.80
2019-03-12T18:03:00.837Z,1.70
2019-03-12T18:05:29.701Z,2.33
2019-03-12T18:07:58.705Z,1.83
2019-03-12T18:10:27.568Z,1.50
2019-03-12T18:12:56.453Z,2.50
2019-03-12T18:15:25.350Z,1.50
2019-03-12T18:17:54.259Z,1.30
2019-03-12T18:20:23.960Z,1.80
2019-03-12T18:22:53.038Z,1.70
2019-03-12T18:25:29.958Z,2.07
2019-03-12T18:27:58.922Z,1.77
2019-03-12T18:30:27.838Z,1.77
2019-03-12T18:32:56.830Z,2.20
2019-03-12T18:35:25.797Z,2.33
2019-03-12T18:37:54.611Z,1.60
2019-03-12T18:40:24.700Z,2.10
2019-03-12T18:42:53.829Z,1.90
2019-03-12T18:45:30.708Z,1.97
2019-03-12T18:47:59.565Z,2.27
2019-03-12T18:50:28.421Z,2.20
2019-03-12T18:52:57.269Z,1.80
2019-03-12T18:55:37.766Z,2.00
2019-03-12T18:58:09.524Z,2.43
2019-03-12T19:00:44.332Z,1.73
2019-03-12T19:03:13.158Z,1.73
2019-03-12T19:05:41.866Z,2.20
2019-03-12T19:08:10.757Z,1.80
2019-03-12T19:10:39.603Z,1.70
2019-03-12T19:13:08.428Z,1.57
2019-03-12T19:15:37.284Z,1.50
2019-03-12T19:18:06.527Z,1.70
2019-03-12T19:20:35.388Z,1.60
2019-03-12T19:23:04.275Z,1.40
2019-03-12T19:25:38.877Z,1.63
2019-03-12T19:28:07.767Z,1.90
2019-03-12T19:30:36.844Z,1.57
2019-03-12T19:33:12.020Z,1.83
2019-03-12T19:35:40.882Z,1.90
2019-03-12T19:38:09.943Z,1.40
2019-03-12T19:40:46.530Z,1.67
2019-03-12T19:43:15.382Z,1.30
2019-03-12T19:45:44.314Z,1.53
2019-03-12T19:48:13.196Z,1.63
2019-03-12T19:50:42.005Z,2.00
2019-03-12T19:53:10.827Z,1.93
2019-03-12T19:55:47.763Z,2.20
2019-03-12T19:58:16.588Z,1.70
2019-03-12T20:00:46.036Z,1.73
2019-03-12T20:03:15.569Z,2.30
2019-03-12T20:05:44.532Z,1.40
2019-03-12T20:08:13.364Z,1.70
2019-03-12T20:10:47.675Z,1.40
2019-03-12T20:13:36.005Z,1.47
2019-03-12T20:16:24.691Z,2.53
2019-03-12T20:19:25.315Z,2.43
2019-03-12T20:22:30.283Z,1.77
2019-03-12T20:25:18.883Z,1.40
2019-03-12T20:27:56.893Z,2.07
2019-03-12T20:31:02.267Z,2.10
2019-03-12T20:33:39.948Z,2.57
2019-03-12T20:36:30.889Z,1.50
2019-03-12T20:39:32.771Z,2.00
2019-03-12T20:42:37.851Z,1.60
2019-03-12T20:45:29.228Z,1.70
2019-03-12T20:48:21.958Z,1.60
2019-03-12T20:51:13.275Z,1.80
2019-03-12T20:54:07.275Z,1.93
2019-03-12T20:56:51.465Z,1.87
2019-03-12T20:59:53.251Z,2.07
2019-03-12T21:02:30.933Z,1.30
2019-03-12T21:05:28.306Z,2.33
2019-03-12T21:08:33.324Z,2.07
2019-03-12T21:11:38.611Z,1.67
2019-03-12T21:14:45.403Z,2.20
2019-03-12T21:17:26.217Z,1.57
2019-03-12T21:20:19.219Z,1.87
2019-03-12T21:23:07.611Z,2.00
2019-03-12T21:25:55.845Z,1.50
2019-03-12T21:28:51.978Z,1.60
2019-03-12T21:31:20.860Z,1.93
2019-03-12T21:33:49.829Z,2.37
2019-03-12T21:36:18.708Z,2.83
2019-03-12T21:38:47.619Z,2.20
2019-03-12T21:41:16.483Z,1.90
2019-03-12T21:43:45.420Z,2.43
2019-03-12T21:46:14.325Z,1.60
2019-03-12T21:48:43.186Z,1.93
2019-03-12T21:51:12.036Z,1.70
2019-03-12T21:53:40.920Z,2.07
2019-03-12T21:56:09.731Z,2.50
2019-03-12T21:58:38.555Z,1.67
2019-03-12T22:01:07.419Z,2.10
2019-03-12T22:03:36.260Z,2.10
2019-03-12T22:06:05.091Z,2.60
2019-03-12T22:08:33.962Z,1.80
2019-03-12T22:11:02.739Z,1.70
2019-03-12T22:13:31.515Z,2.57
2019-03-12T22:16:00.371Z,2.67
2019-03-12T22:18:29.193Z,2.20
2019-03-12T22:20:58.019Z,2.60
2019-03-12T22:23:28.558Z,2.30
2019-03-12T22:25:57.380Z,2.17
2019-03-12T22:28:26.297Z,2.03
2019-03-12T22:30:55.165Z,1.70
2019-03-12T22:33:23.995Z,1.93
2019-03-12T22:35:52.835Z,2.13
2019-03-12T22:38:21.612Z,1.80
2019-03-12T22:40:50.435Z,2.20
2019-03-12T22:43:19.266Z,2.37
2019-03-12T22:45:48.155Z,2.17
2019-03-12T22:48:16.939Z,2.33
2019-03-12T22:50:45.771Z,1.50
2019-03-12T22:53:14.659Z,2.33
2019-03-12T22:55:43.426Z,2.30
2019-03-12T22:58:12.259Z,2.20
2019-03-12T23:00:42.140Z,2.73
2019-03-12T23:03:10.987Z,1.87
2019-03-12T23:05:39.739Z,2.20
2019-03-12T23:08:09.003Z,2.13
2019-03-12T23:10:38.271Z,2.30
2019-03-12T23:13:07.117Z,2.13
2019-03-12T23:15:36.077Z,1.70
2019-03-12T23:18:05.007Z,1.90
2019-03-12T23:20:33.843Z,2.50
2019-03-12T23:23:02.643Z,1.73
2019-03-12T23:25:31.465Z,2.50
2019-03-12T23:28:00.219Z,2.30
2019-03-12T23:30:29.169Z,2.17
2019-03-12T23:32:57.972Z,2.20
2019-03-12T23:35:26.762Z,1.50
2019-03-12T23:37:55.595Z,1.67
2019-03-12T23:40:24.331Z,2.33
2019-03-12T23:42:53.163Z,1.47
2019-03-12T23:45:21.987Z,1.80
2019-03-12T23:47:50.871Z,1.67
2019-03-12T23:50:19.941Z,1.63
2019-03-12T23:52:48.851Z,1.50
2019-03-12T23:55:18.737Z,1.60
2019-03-12T23:57:47.611Z,1.90
